sensor_id;sensor_type;location;lat;lon;timestamp;P1;durP1;ratioP1;P2;durP2;ratioP2
15261;SDS011;7733;51.554;13.590;2023-02-18T00:00:19;2.63;;;1.30;;
15261;SDS011;7733;51.554;13.590;2023-02-18T00:02:47;2.47;;;1.20;;
15261;SDS011;7733;51.554;13.590;2023-02-18T00:05:13;5.63;;;1.60;;
15261;SDS011;7733;51.554;13.590;2023-02-18T00:07:40;2.43;;;1.20;;
15261;SDS011;7733;51.554;13.590;2023-02-18T00:10:07;3.03;;;1.10;;
15261;SDS011;7733;51.554;13.590;2023-02-18T00:12:37;4.43;;;1.60;;
15261;SDS011;7733;51.554;13.590;2023-02-18T00:15:04;2.40;;;1.13;;
15261;SDS011;7733;51.554;13.590;2023-02-18T00:17:30;1.80;;;1.10;;
15261;SDS011;7733;51.554;13.590;2023-02-18T00:19:57;2.77;;;1.27;;
15261;SDS011;7733;51.554;13.590;2023-02-18T00:22:23;2.77;;;1.03;;
15261;SDS011;7733;51.554;13.590;2023-02-18T00:24:49;2.87;;;1.30;;
15261;SDS011;7733;51.554;13.590;2023-02-18T00:27:15;4.63;;;1.30;;
15261;SDS011;7733;51.554;13.590;2023-02-18T00:29:41;3.87;;;1.27;;
15261;SDS011;7733;51.554;13.590;2023-02-18T00:32:07;1.77;;;1.23;;
15261;SDS011;7733;51.554;13.590;2023-02-18T00:34:33;2.53;;;1.40;;
15261;SDS011;7733;51.554;13.590;2023-02-18T00:36:58;1.77;;;1.30;;
15261;SDS011;7733;51.554;13.590;2023-02-18T00:39:24;3.63;;;2.10;;
15261;SDS011;7733;51.554;13.590;2023-02-18T00:41:50;3.53;;;2.23;;
15261;SDS011;7733;51.554;13.590;2023-02-18T00:44:15;3.20;;;1.30;;
15261;SDS011;7733;51.554;13.590;2023-02-18T00:46:41;3.13;;;1.20;;
15261;SDS011;7733;51.554;13.590;2023-02-18T00:49:07;3.10;;;1.43;;
15261;SDS011;7733;51.554;13.590;2023-02-18T00:51:34;3.70;;;1.60;;
15261;SDS011;7733;51.554;13.590;2023-02-18T00:54:00;4.17;;;1.37;;
15261;SDS011;7733;51.554;13.590;2023-02-18T00:56:26;3.93;;;1.43;;
15261;SDS011;7733;51.554;13.590;2023-02-18T00:58:52;3.80;;;1.30;;
15261;SDS011;7733;51.554;13.590;2023-02-18T01:01:18;3.63;;;1.10;;
15261;SDS011;7733;51.554;13.590;2023-02-18T01:03:44;3.10;;;1.43;;
15261;SDS011;7733;51.554;13.590;2023-02-18T01:06:10;2.43;;;1.30;;
15261;SDS011;7733;51.554;13.590;2023-02-18T01:08:37;5.43;;;1.47;;
15261;SDS011;7733;51.554;13.590;2023-02-18T01:11:04;3.40;;;1.57;;
15261;SDS011;7733;51.554;13.590;2023-02-18T01:13:33;1.90;;;0.97;;
15261;SDS011;7733;51.554;13.590;2023-02-18T01:16:00;3.50;;;1.17;;
15261;SDS011;7733;51.554;13.590;2023-02-18T01:18:26;1.70;;;1.07;;
15261;SDS011;7733;51.554;13.590;2023-02-18T01:20:52;3.23;;;1.37;;
15261;SDS011;7733;51.554;13.590;2023-02-18T01:23:18;2.90;;;1.57;;
15261;SDS011;7733;51.554;13.590;2023-02-18T01:25:44;2.57;;;1.20;;
15261;SDS011;7733;51.554;13.590;2023-02-18T01:28:11;2.33;;;1.20;;
15261;SDS011;7733;51.554;13.590;2023-02-18T01:30:39;3.90;;;1.10;;
15261;SDS011;7733;51.554;13.590;2023-02-18T01:33:06;3.03;;;1.10;;
15261;SDS011;7733;51.554;13.590;2023-02-18T01:35:32;2.67;;;1.27;;
15261;SDS011;7733;51.554;13.590;2023-02-18T01:38:02;2.63;;;1.20;;
15261;SDS011;7733;51.554;13.590;2023-02-18T01:40:28;2.60;;;0.97;;
15261;SDS011;7733;51.554;13.590;2023-02-18T01:42:54;2.97;;;1.30;;
15261;SDS011;7733;51.554;13.590;2023-02-18T01:45:36;4.77;;;1.50;;
15261;SDS011;7733;51.554;13.590;2023-02-18T01:50:56;2.10;;;1.10;;
15261;SDS011;7733;51.554;13.590;2023-02-18T01:53:46;1.87;;;1.10;;
15261;SDS011;7733;51.554;13.590;2023-02-18T01:56:21;2.67;;;1.00;;
15261;SDS011;7733;51.554;13.590;2023-02-18T01:58:54;3.00;;;1.20;;
15261;SDS011;7733;51.554;13.590;2023-02-18T02:01:24;3.60;;;1.33;;
15261;SDS011;7733;51.554;13.590;2023-02-18T02:03:51;2.90;;;1.57;;
15261;SDS011;7733;51.554;13.590;2023-02-18T02:06:18;2.03;;;1.20;;
15261;SDS011;7733;51.554;13.590;2023-02-18T02:08:47;3.63;;;1.30;;
15261;SDS011;7733;51.554;13.590;2023-02-18T02:14:09;2.33;;;1.43;;
15261;SDS011;7733;51.554;13.590;2023-02-18T02:16:54;2.03;;;1.33;;
15261;SDS011;7733;51.554;13.590;2023-02-18T02:19:47;2.20;;;1.37;;
15261;SDS011;7733;51.554;13.590;2023-02-18T02:32:01;2.00;;;0.73;;
15261;SDS011;7733;51.554;13.590;2023-02-18T02:34:44;2.87;;;1.20;;
15261;SDS011;7733;51.554;13.590;2023-02-18T02:37:23;4.10;;;1.13;;
15261;SDS011;7733;51.554;13.590;2023-02-18T02:46:27;1.33;;;0.90;;
15261;SDS011;7733;51.554;13.590;2023-02-18T02:49:05;1.57;;;1.07;;
15261;SDS011;7733;51.554;13.590;2023-02-18T02:55:02;4.13;;;1.00;;
15261;SDS011;7733;51.554;13.590;2023-02-18T02:57:41;3.17;;;1.00;;
15261;SDS011;7733;51.554;13.590;2023-02-18T03:00:14;1.83;;;1.03;;
15261;SDS011;7733;51.554;13.590;2023-02-18T03:08:53;2.20;;;1.03;;
15261;SDS011;7733;51.554;13.590;2023-02-18T03:11:34;2.00;;;0.97;;
15261;SDS011;7733;51.554;13.590;2023-02-18T03:14:22;2.37;;;1.07;;
15261;SDS011;7733;51.554;13.590;2023-02-18T03:19:38;2.57;;;1.00;;
15261;SDS011;7733;51.554;13.590;2023-02-18T03:22:20;2.17;;;1.17;;
15261;SDS011;7733;51.554;13.590;2023-02-18T03:24:54;2.47;;;1.20;;
15261;SDS011;7733;51.554;13.590;2023-02-18T03:30:03;1.27;;;0.90;;
15261;SDS011;7733;51.554;13.590;2023-02-18T03:32:40;2.40;;;1.00;;
15261;SDS011;7733;51.554;13.590;2023-02-18T03:35:10;2.17;;;0.70;;
15261;SDS011;7733;51.554;13.590;2023-02-18T03:37:42;3.63;;;1.00;;
15261;SDS011;7733;51.554;13.590;2023-02-18T03:40:17;2.07;;;0.90;;
15261;SDS011;7733;51.554;13.590;2023-02-18T03:42:43;2.23;;;0.90;;
15261;SDS011;7733;51.554;13.590;2023-02-18T03:45:09;2.17;;;0.97;;
15261;SDS011;7733;51.554;13.590;2023-02-18T03:47:35;2.30;;;0.93;;
15261;SDS011;7733;51.554;13.590;2023-02-18T03:50:02;1.90;;;0.93;;
15261;SDS011;7733;51.554;13.590;2023-02-18T03:52:27;2.20;;;0.93;;
15261;SDS011;7733;51.554;13.590;2023-02-18T03:54:53;2.73;;;1.13;;
15261;SDS011;7733;51.554;13.590;2023-02-18T03:57:19;1.57;;;0.83;;
15261;SDS011;7733;51.554;13.590;2023-02-18T03:59:45;2.10;;;1.00;;
15261;SDS011;7733;51.554;13.590;2023-02-18T04:02:10;2.57;;;0.70;;
15261;SDS011;7733;51.554;13.590;2023-02-18T04:04:36;1.77;;;0.90;;
15261;SDS011;7733;51.554;13.590;2023-02-18T04:07:02;2.67;;;0.90;;
15261;SDS011;7733;51.554;13.590;2023-02-18T04:09:27;3.57;;;0.93;;
15261;SDS011;7733;51.554;13.590;2023-02-18T04:11:53;2.23;;;1.00;;
15261;SDS011;7733;51.554;13.590;2023-02-18T04:14:19;1.30;;;0.70;;
15261;SDS011;7733;51.554;13.590;2023-02-18T04:16:44;1.50;;;0.80;;
15261;SDS011;7733;51.554;13.590;2023-02-18T04:19:10;1.43;;;0.80;;
15261;SDS011;7733;51.554;13.590;2023-02-18T04:21:36;1.77;;;0.90;;
15261;SDS011;7733;51.554;13.590;2023-02-18T04:24:02;1.40;;;0.83;;
15261;SDS011;7733;51.554;13.590;2023-02-18T04:26:28;1.37;;;0.80;;
15261;SDS011;7733;51.554;13.590;2023-02-18T04:28:54;4.47;;;1.30;;
15261;SDS011;7733;51.554;13.590;2023-02-18T04:31:19;1.60;;;1.00;;
15261;SDS011;7733;51.554;13.590;2023-02-18T04:33:45;2.27;;;1.00;;
15261;SDS011;7733;51.554;13.590;2023-02-18T04:36:11;2.93;;;1.40;;
15261;SDS011;7733;51.554;13.590;2023-02-18T04:38:36;2.93;;;1.00;;
15261;SDS011;7733;51.554;13.590;2023-02-18T04:41:02;3.40;;;1.30;;
15261;SDS011;7733;51.554;13.590;2023-02-18T04:43:28;2.63;;;0.93;;
15261;SDS011;7733;51.554;13.590;2023-02-18T04:45:54;4.07;;;2.07;;
15261;SDS011;7733;51.554;13.590;2023-02-18T04:48:19;1.70;;;1.03;;
15261;SDS011;7733;51.554;13.590;2023-02-18T04:50:45;1.43;;;1.03;;
15261;SDS011;7733;51.554;13.590;2023-02-18T04:53:11;2.20;;;1.30;;
15261;SDS011;7733;51.554;13.590;2023-02-18T04:55:37;2.20;;;1.53;;
15261;SDS011;7733;51.554;13.590;2023-02-18T04:58:02;2.60;;;1.37;;
15261;SDS011;7733;51.554;13.590;2023-02-18T05:00:28;3.63;;;1.50;;
15261;SDS011;7733;51.554;13.590;2023-02-18T05:02:54;3.03;;;1.17;;
15261;SDS011;7733;51.554;13.590;2023-02-18T05:05:20;1.00;;;0.90;;
15261;SDS011;7733;51.554;13.590;2023-02-18T05:07:45;4.73;;;2.10;;
15261;SDS011;7733;51.554;13.590;2023-02-18T05:10:13;1.43;;;1.03;;
15261;SDS011;7733;51.554;13.590;2023-02-18T05:12:42;4.47;;;1.43;;
15261;SDS011;7733;51.554;13.590;2023-02-18T05:15:08;2.93;;;1.37;;
15261;SDS011;7733;51.554;13.590;2023-02-18T05:17:34;1.67;;;1.10;;
15261;SDS011;7733;51.554;13.590;2023-02-18T05:20:00;1.50;;;1.10;;
15261;SDS011;7733;51.554;13.590;2023-02-18T05:22:25;3.23;;;1.30;;
15261;SDS011;7733;51.554;13.590;2023-02-18T05:24:51;2.20;;;1.20;;
15261;SDS011;7733;51.554;13.590;2023-02-18T05:27:17;3.17;;;1.90;;
15261;SDS011;7733;51.554;13.590;2023-02-18T05:29:43;3.27;;;1.50;;
15261;SDS011;7733;51.554;13.590;2023-02-18T05:32:08;2.27;;;1.20;;
15261;SDS011;7733;51.554;13.590;2023-02-18T05:34:34;4.40;;;1.80;;
15261;SDS011;7733;51.554;13.590;2023-02-18T05:37:00;5.67;;;1.80;;
15261;SDS011;7733;51.554;13.590;2023-02-18T05:39:26;4.83;;;1.70;;
15261;SDS011;7733;51.554;13.590;2023-02-18T05:41:51;2.63;;;1.13;;
15261;SDS011;7733;51.554;13.590;2023-02-18T05:44:17;2.57;;;1.00;;
15261;SDS011;7733;51.554;13.590;2023-02-18T05:46:55;4.50;;;1.40;;
15261;SDS011;7733;51.554;13.590;2023-02-18T05:49:27;2.33;;;1.30;;
15261;SDS011;7733;51.554;13.590;2023-02-18T05:51:55;4.70;;;1.47;;
15261;SDS011;7733;51.554;13.590;2023-02-18T05:54:21;4.03;;;1.57;;
15261;SDS011;7733;51.554;13.590;2023-02-18T05:56:48;2.57;;;1.30;;
15261;SDS011;7733;51.554;13.590;2023-02-18T05:59:14;3.83;;;1.23;;
15261;SDS011;7733;51.554;13.590;2023-02-18T06:01:39;5.23;;;1.57;;
15261;SDS011;7733;51.554;13.590;2023-02-18T06:04:06;3.70;;;1.60;;
15261;SDS011;7733;51.554;13.590;2023-02-18T06:06:32;4.53;;;1.70;;
15261;SDS011;7733;51.554;13.590;2023-02-18T06:08:58;5.83;;;1.70;;
15261;SDS011;7733;51.554;13.590;2023-02-18T06:11:24;4.70;;;1.53;;
15261;SDS011;7733;51.554;13.590;2023-02-18T06:13:49;4.53;;;1.57;;
15261;SDS011;7733;51.554;13.590;2023-02-18T06:16:15;3.70;;;1.70;;
15261;SDS011;7733;51.554;13.590;2023-02-18T06:18:41;4.50;;;1.97;;
15261;SDS011;7733;51.554;13.590;2023-02-18T06:21:07;3.80;;;1.50;;
15261;SDS011;7733;51.554;13.590;2023-02-18T06:23:32;4.73;;;2.07;;
15261;SDS011;7733;51.554;13.590;2023-02-18T06:25:58;3.93;;;1.90;;
15261;SDS011;7733;51.554;13.590;2023-02-18T06:28:24;3.40;;;1.80;;
15261;SDS011;7733;51.554;13.590;2023-02-18T06:30:50;4.47;;;2.10;;
15261;SDS011;7733;51.554;13.590;2023-02-18T06:33:15;4.27;;;2.00;;
15261;SDS011;7733;51.554;13.590;2023-02-18T06:35:41;2.93;;;1.50;;
15261;SDS011;7733;51.554;13.590;2023-02-18T06:38:17;4.93;;;2.60;;
15261;SDS011;7733;51.554;13.590;2023-02-18T06:40:44;4.10;;;1.70;;
15261;SDS011;7733;51.554;13.590;2023-02-18T06:43:11;2.90;;;1.77;;
15261;SDS011;7733;51.554;13.590;2023-02-18T06:45:38;4.10;;;2.00;;
15261;SDS011;7733;51.554;13.590;2023-02-18T06:48:04;3.83;;;2.03;;
15261;SDS011;7733;51.554;13.590;2023-02-18T06:50:30;6.40;;;1.70;;
15261;SDS011;7733;51.554;13.590;2023-02-18T06:52:56;5.13;;;2.23;;
15261;SDS011;7733;51.554;13.590;2023-02-18T06:55:23;4.37;;;1.80;;
15261;SDS011;7733;51.554;13.590;2023-02-18T06:57:50;5.10;;;1.77;;
15261;SDS011;7733;51.554;13.590;2023-02-18T07:00:15;7.03;;;2.53;;
15261;SDS011;7733;51.554;13.590;2023-02-18T07:02:42;9.17;;;2.37;;
15261;SDS011;7733;51.554;13.590;2023-02-18T07:05:07;6.47;;;2.80;;
15261;SDS011;7733;51.554;13.590;2023-02-18T07:07:33;6.83;;;2.50;;
15261;SDS011;7733;51.554;13.590;2023-02-18T07:09:59;5.47;;;2.10;;
15261;SDS011;7733;51.554;13.590;2023-02-18T07:12:25;6.43;;;2.10;;
15261;SDS011;7733;51.554;13.590;2023-02-18T07:14:51;7.07;;;2.40;;
15261;SDS011;7733;51.554;13.590;2023-02-18T07:17:17;7.53;;;2.33;;
15261;SDS011;7733;51.554;13.590;2023-02-18T07:19:43;5.63;;;2.37;;
15261;SDS011;7733;51.554;13.590;2023-02-18T07:22:09;6.93;;;3.30;;
15261;SDS011;7733;51.554;13.590;2023-02-18T07:24:35;9.40;;;6.40;;
15261;SDS011;7733;51.554;13.590;2023-02-18T07:27:01;5.57;;;3.10;;
15261;SDS011;7733;51.554;13.590;2023-02-18T07:29:27;4.97;;;2.40;;
15261;SDS011;7733;51.554;13.590;2023-02-18T07:31:52;5.23;;;2.37;;
15261;SDS011;7733;51.554;13.590;2023-02-18T07:34:19;6.17;;;2.67;;
15261;SDS011;7733;51.554;13.590;2023-02-18T07:36:45;5.87;;;2.60;;
15261;SDS011;7733;51.554;13.590;2023-02-18T07:39:10;6.97;;;2.60;;
15261;SDS011;7733;51.554;13.590;2023-02-18T07:41:36;9.60;;;2.47;;
15261;SDS011;7733;51.554;13.590;2023-02-18T07:44:02;3.30;;;2.00;;
15261;SDS011;7733;51.554;13.590;2023-02-18T07:46:28;5.17;;;2.37;;
15261;SDS011;7733;51.554;13.590;2023-02-18T07:48:55;6.13;;;2.80;;
15261;SDS011;7733;51.554;13.590;2023-02-18T07:51:22;8.03;;;2.53;;
15261;SDS011;7733;51.554;13.590;2023-02-18T07:53:47;8.47;;;2.80;;
15261;SDS011;7733;51.554;13.590;2023-02-18T07:56:13;5.77;;;2.40;;
15261;SDS011;7733;51.554;13.590;2023-02-18T07:58:39;8.63;;;2.70;;
15261;SDS011;7733;51.554;13.590;2023-02-18T08:01:06;7.30;;;2.40;;
15261;SDS011;7733;51.554;13.590;2023-02-18T08:03:35;7.60;;;3.10;;
15261;SDS011;7733;51.554;13.590;2023-02-18T08:06:02;26.10;;;22.70;;
15261;SDS011;7733;51.554;13.590;2023-02-18T08:08:30;18.57;;;13.90;;
15261;SDS011;7733;51.554;13.590;2023-02-18T08:10:58;9.13;;;4.10;;
15261;SDS011;7733;51.554;13.590;2023-02-18T08:13:27;13.63;;;10.43;;
15261;SDS011;7733;51.554;13.590;2023-02-18T08:15:54;7.00;;;3.60;;
15261;SDS011;7733;51.554;13.590;2023-02-18T08:18:21;28.03;;;25.17;;
15261;SDS011;7733;51.554;13.590;2023-02-18T08:20:49;47.03;;;42.60;;
15261;SDS011;7733;51.554;13.590;2023-02-18T08:23:19;20.73;;;17.37;;
15261;SDS011;7733;51.554;13.590;2023-02-18T08:25:49;15.93;;;13.07;;
15261;SDS011;7733;51.554;13.590;2023-02-18T08:28:19;16.87;;;9.33;;
15261;SDS011;7733;51.554;13.590;2023-02-18T08:30:49;14.70;;;8.83;;
15261;SDS011;7733;51.554;13.590;2023-02-18T08:33:18;12.67;;;6.47;;
15261;SDS011;7733;51.554;13.590;2023-02-18T08:35:45;7.83;;;4.10;;
15261;SDS011;7733;51.554;13.590;2023-02-18T08:38:13;6.77;;;3.83;;
15261;SDS011;7733;51.554;13.590;2023-02-18T08:40:39;4.90;;;2.60;;
15261;SDS011;7733;51.554;13.590;2023-02-18T08:43:06;6.37;;;3.57;;
15261;SDS011;7733;51.554;13.590;2023-02-18T08:45:32;5.17;;;2.83;;
15261;SDS011;7733;51.554;13.590;2023-02-18T08:47:58;5.93;;;3.37;;
15261;SDS011;7733;51.554;13.590;2023-02-18T08:50:24;5.13;;;3.27;;
15261;SDS011;7733;51.554;13.590;2023-02-18T08:52:52;5.73;;;2.60;;
15261;SDS011;7733;51.554;13.590;2023-02-18T08:55:18;5.93;;;3.10;;
15261;SDS011;7733;51.554;13.590;2023-02-18T08:57:48;4.40;;;2.87;;
15261;SDS011;7733;51.554;13.590;2023-02-18T09:00:15;8.23;;;2.90;;
15261;SDS011;7733;51.554;13.590;2023-02-18T09:02:42;4.73;;;2.23;;
15261;SDS011;7733;51.554;13.590;2023-02-18T09:05:08;6.73;;;3.27;;
15261;SDS011;7733;51.554;13.590;2023-02-18T09:07:35;5.87;;;3.10;;
15261;SDS011;7733;51.554;13.590;2023-02-18T09:10:01;5.60;;;3.63;;
15261;SDS011;7733;51.554;13.590;2023-02-18T09:12:28;5.00;;;3.10;;
15261;SDS011;7733;51.554;13.590;2023-02-18T09:14:54;5.50;;;3.70;;
15261;SDS011;7733;51.554;13.590;2023-02-18T09:17:20;4.07;;;3.30;;
15261;SDS011;7733;51.554;13.590;2023-02-18T09:19:46;6.73;;;6.13;;
15261;SDS011;7733;51.554;13.590;2023-02-18T09:22:12;5.93;;;4.07;;
15261;SDS011;7733;51.554;13.590;2023-02-18T09:24:38;3.83;;;3.53;;
15261;SDS011;7733;51.554;13.590;2023-02-18T09:27:05;5.10;;;4.70;;
15261;SDS011;7733;51.554;13.590;2023-02-18T09:29:32;8.17;;;7.37;;
15261;SDS011;7733;51.554;13.590;2023-02-18T09:32:02;19.50;;;16.07;;
15261;SDS011;7733;51.554;13.590;2023-02-18T09:34:29;15.77;;;12.40;;
15261;SDS011;7733;51.554;13.590;2023-02-18T09:36:55;9.00;;;6.93;;
15261;SDS011;7733;51.554;13.590;2023-02-18T09:39:20;6.57;;;5.97;;
15261;SDS011;7733;51.554;13.590;2023-02-18T09:41:47;5.33;;;4.03;;
15261;SDS011;7733;51.554;13.590;2023-02-18T09:44:24;26.53;;;24.33;;
15261;SDS011;7733;51.554;13.590;2023-02-18T09:52:42;4.00;;;3.70;;
15261;SDS011;7733;51.554;13.590;2023-02-18T09:57:55;5.47;;;4.97;;
15261;SDS011;7733;51.554;13.590;2023-02-18T10:00:31;5.10;;;4.70;;
15261;SDS011;7733;51.554;13.590;2023-02-18T10:03:03;5.03;;;3.90;;
15261;SDS011;7733;51.554;13.590;2023-02-18T10:05:36;3.97;;;3.67;;
15261;SDS011;7733;51.554;13.590;2023-02-18T10:08:18;4.33;;;3.83;;
15261;SDS011;7733;51.554;13.590;2023-02-18T10:10:53;4.80;;;4.03;;
15261;SDS011;7733;51.554;13.590;2023-02-18T10:13:20;6.03;;;5.53;;
15261;SDS011;7733;51.554;13.590;2023-02-18T10:15:50;4.63;;;4.33;;
15261;SDS011;7733;51.554;13.590;2023-02-18T10:18:30;6.80;;;6.30;;
15261;SDS011;7733;51.554;13.590;2023-02-18T10:21:12;6.43;;;5.83;;
15261;SDS011;7733;51.554;13.590;2023-02-18T10:24:28;13.00;;;10.87;;
15261;SDS011;7733;51.554;13.590;2023-02-18T10:27:27;9.30;;;8.50;;
15261;SDS011;7733;51.554;13.590;2023-02-18T10:29:59;13.97;;;12.53;;
15261;SDS011;7733;51.554;13.590;2023-02-18T10:32:39;43.13;;;34.40;;
15261;SDS011;7733;51.554;13.590;2023-02-18T10:35:17;23.53;;;21.20;;
15261;SDS011;7733;51.554;13.590;2023-02-18T10:52:32;28.60;;;22.83;;
15261;SDS011;7733;51.554;13.590;2023-02-18T10:55:07;40.30;;;30.60;;
15261;SDS011;7733;51.554;13.590;2023-02-18T10:57:53;23.63;;;20.40;;
15261;SDS011;7733;51.554;13.590;2023-02-18T11:00:21;39.47;;;29.90;;
15261;SDS011;7733;51.554;13.590;2023-02-18T11:05:49;21.80;;;18.50;;
15261;SDS011;7733;51.554;13.590;2023-02-18T11:08:20;13.23;;;10.47;;
15261;SDS011;7733;51.554;13.590;2023-02-18T11:10:51;12.20;;;9.40;;
15261;SDS011;7733;51.554;13.590;2023-02-18T11:13:37;8.43;;;7.60;;
15261;SDS011;7733;51.554;13.590;2023-02-18T11:16:06;8.07;;;6.57;;
15261;SDS011;7733;51.554;13.590;2023-02-18T11:18:43;8.27;;;6.67;;
15261;SDS011;7733;51.554;13.590;2023-02-18T11:24:09;6.70;;;6.10;;
15261;SDS011;7733;51.554;13.590;2023-02-18T11:26:40;5.30;;;4.80;;
15261;SDS011;7733;51.554;13.590;2023-02-18T11:29:20;5.47;;;5.07;;
15261;SDS011;7733;51.554;13.590;2023-02-18T11:31:51;4.60;;;4.30;;
15261;SDS011;7733;51.554;13.590;2023-02-18T11:34:27;4.00;;;3.80;;
15261;SDS011;7733;51.554;13.590;2023-02-18T11:37:07;3.20;;;2.93;;
15261;SDS011;7733;51.554;13.590;2023-02-18T11:39:44;3.47;;;2.93;;
15261;SDS011;7733;51.554;13.590;2023-02-18T11:42:15;2.93;;;2.70;;
15261;SDS011;7733;51.554;13.590;2023-02-18T11:45:24;2.50;;;2.40;;
15261;SDS011;7733;51.554;13.590;2023-02-18T11:47:58;2.33;;;2.23;;
15261;SDS011;7733;51.554;13.590;2023-02-18T11:50:38;2.40;;;2.30;;
15261;SDS011;7733;51.554;13.590;2023-02-18T11:53:24;1.33;;;1.33;;
15261;SDS011;7733;51.554;13.590;2023-02-18T11:56:00;1.60;;;1.60;;
15261;SDS011;7733;51.554;13.590;2023-02-18T11:58:37;2.03;;;1.93;;
15261;SDS011;7733;51.554;13.590;2023-02-18T12:01:12;1.63;;;1.57;;
15261;SDS011;7733;51.554;13.590;2023-02-18T12:04:13;2.13;;;2.03;;
15261;SDS011;7733;51.554;13.590;2023-02-18T12:06:50;0.80;;;0.80;;
15261;SDS011;7733;51.554;13.590;2023-02-18T12:09:31;0.50;;;0.50;;
15261;SDS011;7733;51.554;13.590;2023-02-18T12:12:47;0.70;;;0.70;;
15261;SDS011;7733;51.554;13.590;2023-02-18T12:15:05;0.60;;;0.60;;
15261;SDS011;7733;51.554;13.590;2023-02-18T12:21:14;0.27;;;0.27;;
15261;SDS011;7733;51.554;13.590;2023-02-18T12:23:56;0.33;;;0.30;;
15261;SDS011;7733;51.554;13.590;2023-02-18T12:33:26;1.00;;;1.00;;
15261;SDS011;7733;51.554;13.590;2023-02-18T12:45:44;1.53;;;1.43;;
15261;SDS011;7733;51.554;13.590;2023-02-18T12:51:25;0.50;;;0.50;;
15261;SDS011;7733;51.554;13.590;2023-02-18T12:57:42;0.20;;;0.20;;
15261;SDS011;7733;51.554;13.590;2023-02-18T13:09:59;0.20;;;0.20;;
15261;SDS011;7733;51.554;13.590;2023-02-18T13:12:38;0.30;;;0.30;;
15261;SDS011;7733;51.554;13.590;2023-02-18T13:17:59;0.30;;;0.30;;
15261;SDS011;7733;51.554;13.590;2023-02-18T13:20:38;0.30;;;0.30;;
15261;SDS011;7733;51.554;13.590;2023-02-18T13:23:27;0.20;;;0.20;;
15261;SDS011;7733;51.554;13.590;2023-02-18T13:26:19;0.10;;;0.10;;
15261;SDS011;7733;51.554;13.590;2023-02-18T13:31:41;0.20;;;0.20;;
15261;SDS011;7733;51.554;13.590;2023-02-18T13:34:45;0.30;;;0.30;;
15261;SDS011;7733;51.554;13.590;2023-02-18T13:40:58;0.10;;;0.10;;
15261;SDS011;7733;51.554;13.590;2023-02-18T13:43:32;0.30;;;0.30;;
15261;SDS011;7733;51.554;13.590;2023-02-18T13:56:39;0.30;;;0.30;;
15261;SDS011;7733;51.554;13.590;2023-02-18T14:01:43;0.87;;;0.20;;
15261;SDS011;7733;51.554;13.590;2023-02-18T14:17:46;0.40;;;0.40;;
15261;SDS011;7733;51.554;13.590;2023-02-18T14:25:48;0.30;;;0.30;;
15261;SDS011;7733;51.554;13.590;2023-02-18T14:31:00;0.47;;;0.47;;
15261;SDS011;7733;51.554;13.590;2023-02-18T14:33:31;0.50;;;0.50;;
15261;SDS011;7733;51.554;13.590;2023-02-18T14:39:25;0.53;;;0.53;;
15261;SDS011;7733;51.554;13.590;2023-02-18T14:51:15;0.30;;;0.30;;
15261;SDS011;7733;51.554;13.590;2023-02-18T14:53:46;0.50;;;0.50;;
15261;SDS011;7733;51.554;13.590;2023-02-18T14:56:14;0.97;;;0.50;;
15261;SDS011;7733;51.554;13.590;2023-02-18T14:58:45;1.17;;;1.17;;
15261;SDS011;7733;51.554;13.590;2023-02-18T15:01:22;1.23;;;1.13;;
15261;SDS011;7733;51.554;13.590;2023-02-18T15:03:56;0.70;;;0.63;;
15261;SDS011;7733;51.554;13.590;2023-02-18T15:08:59;0.60;;;0.60;;
15261;SDS011;7733;51.554;13.590;2023-02-18T15:11:38;0.40;;;0.40;;
15261;SDS011;7733;51.554;13.590;2023-02-18T15:14:15;0.30;;;0.30;;
15261;SDS011;7733;51.554;13.590;2023-02-18T15:16:49;0.33;;;0.30;;
15261;SDS011;7733;51.554;13.590;2023-02-18T15:19:17;0.50;;;0.40;;
15261;SDS011;7733;51.554;13.590;2023-02-18T15:21:49;0.30;;;0.30;;
15261;SDS011;7733;51.554;13.590;2023-02-18T15:24:23;0.43;;;0.40;;
15261;SDS011;7733;51.554;13.590;2023-02-18T15:26:57;0.50;;;0.20;;
15261;SDS011;7733;51.554;13.590;2023-02-18T15:29:29;0.53;;;0.33;;
15261;SDS011;7733;51.554;13.590;2023-02-18T15:32:05;0.20;;;0.20;;
15261;SDS011;7733;51.554;13.590;2023-02-18T15:34:47;0.40;;;0.40;;
15261;SDS011;7733;51.554;13.590;2023-02-18T15:37:22;0.40;;;0.40;;
15261;SDS011;7733;51.554;13.590;2023-02-18T15:39:48;0.30;;;0.30;;
15261;SDS011;7733;51.554;13.590;2023-02-18T15:42:30;1.03;;;0.40;;
15261;SDS011;7733;51.554;13.590;2023-02-18T15:47:43;0.23;;;0.23;;
15261;SDS011;7733;51.554;13.590;2023-02-18T15:50:55;0.43;;;0.43;;
15261;SDS011;7733;51.554;13.590;2023-02-18T15:53:11;0.40;;;0.40;;
15261;SDS011;7733;51.554;13.590;2023-02-18T15:55:44;0.40;;;0.40;;
15261;SDS011;7733;51.554;13.590;2023-02-18T15:58:17;0.43;;;0.40;;
15261;SDS011;7733;51.554;13.590;2023-02-18T16:00:57;0.30;;;0.30;;
15261;SDS011;7733;51.554;13.590;2023-02-18T16:09:11;0.47;;;0.40;;
15261;SDS011;7733;51.554;13.590;2023-02-18T16:11:48;0.50;;;0.47;;
15261;SDS011;7733;51.554;13.590;2023-02-18T16:19:54;0.50;;;0.50;;
15261;SDS011;7733;51.554;13.590;2023-02-18T16:24:56;0.60;;;0.60;;
15261;SDS011;7733;51.554;13.590;2023-02-18T16:27:34;0.60;;;0.60;;
15261;SDS011;7733;51.554;13.590;2023-02-18T16:30:14;0.60;;;0.60;;
15261;SDS011;7733;51.554;13.590;2023-02-18T16:32:48;0.60;;;0.60;;
15261;SDS011;7733;51.554;13.590;2023-02-18T16:35:15;0.80;;;0.80;;
15261;SDS011;7733;51.554;13.590;2023-02-18T16:37:43;0.70;;;0.70;;
15261;SDS011;7733;51.554;13.590;2023-02-18T16:43:08;0.60;;;0.60;;
15261;SDS011;7733;51.554;13.590;2023-02-18T16:45:40;1.23;;;1.23;;
15261;SDS011;7733;51.554;13.590;2023-02-18T16:48:14;1.10;;;0.97;;
15261;SDS011;7733;51.554;13.590;2023-02-18T16:51:09;1.10;;;1.10;;
15261;SDS011;7733;51.554;13.590;2023-02-18T16:53:45;1.83;;;0.77;;
15261;SDS011;7733;51.554;13.590;2023-02-18T16:56:15;0.93;;;0.80;;
15261;SDS011;7733;51.554;13.590;2023-02-18T16:58:47;0.50;;;0.50;;
15261;SDS011;7733;51.554;13.590;2023-02-18T17:01:19;0.70;;;0.70;;
15261;SDS011;7733;51.554;13.590;2023-02-18T17:03:57;0.80;;;0.67;;
15261;SDS011;7733;51.554;13.590;2023-02-18T17:06:25;0.60;;;0.60;;
15261;SDS011;7733;51.554;13.590;2023-02-18T17:08:53;0.73;;;0.70;;
15261;SDS011;7733;51.554;13.590;2023-02-18T17:11:27;0.67;;;0.67;;
15261;SDS011;7733;51.554;13.590;2023-02-18T17:13:57;1.27;;;1.23;;
15261;SDS011;7733;51.554;13.590;2023-02-18T17:16:24;0.70;;;0.70;;
15261;SDS011;7733;51.554;13.590;2023-02-18T17:18:53;0.70;;;0.70;;
15261;SDS011;7733;51.554;13.590;2023-02-18T17:21:20;0.87;;;0.80;;
15261;SDS011;7733;51.554;13.590;2023-02-18T17:23:48;1.27;;;1.27;;
15261;SDS011;7733;51.554;13.590;2023-02-18T17:26:18;0.90;;;0.90;;
15261;SDS011;7733;51.554;13.590;2023-02-18T17:28:51;1.13;;;1.13;;
15261;SDS011;7733;51.554;13.590;2023-02-18T17:31:20;0.70;;;0.70;;
15261;SDS011;7733;51.554;13.590;2023-02-18T17:33:52;1.33;;;1.20;;
15261;SDS011;7733;51.554;13.590;2023-02-18T17:36:22;1.10;;;1.10;;
15261;SDS011;7733;51.554;13.590;2023-02-18T17:38:48;0.90;;;0.90;;
15261;SDS011;7733;51.554;13.590;2023-02-18T17:41:15;2.40;;;1.40;;
15261;SDS011;7733;51.554;13.590;2023-02-18T17:43:41;1.00;;;1.00;;
15261;SDS011;7733;51.554;13.590;2023-02-18T17:46:09;1.23;;;1.17;;
15261;SDS011;7733;51.554;13.590;2023-02-18T17:48:38;1.30;;;1.30;;
15261;SDS011;7733;51.554;13.590;2023-02-18T17:51:05;0.90;;;0.90;;
15261;SDS011;7733;51.554;13.590;2023-02-18T17:53:31;1.13;;;1.10;;
15261;SDS011;7733;51.554;13.590;2023-02-18T17:56:00;0.97;;;0.87;;
15261;SDS011;7733;51.554;13.590;2023-02-18T17:58:26;1.00;;;1.00;;
15261;SDS011;7733;51.554;13.590;2023-02-18T18:00:53;1.20;;;0.97;;
15261;SDS011;7733;51.554;13.590;2023-02-18T18:03:21;1.00;;;1.00;;
15261;SDS011;7733;51.554;13.590;2023-02-18T18:05:48;1.10;;;1.10;;